Climatologie pour Saint-Brevin les Pins
Jour • Résumé pour juin 18, 2017 Système :  Métrique    Anglais   Mixte
« - 1 jour
+ 1 jour »
Jour Semaine Mois Année Personnalisé
  Maximum : Minimum : Moyenne :
Température sous abri : -17.8 °C -8.8 °C -3.9 °C
Point de rosée : -17.8 °C -9.6 °C -8.6 °C
Humidité : Humidity % 37 % 63 %
Vitesse du vent : 0 km/h 0 km/h 11.9 km/h
Rafale : 0 km/h - -
Direction :- - ENE
Pression : 0 hPa 34384.8 hPa -
Précipitations : 0 mm    
Historical Graphs
 
 
Tableau de données pour juin 18, 2017
Heure Tempé Pt rosée Pression Vent Vitesse Rafale Humidité Taux pluie (/hr) Soleil
-17.8 °C -17.8 °C 0 hPa Calm     Humidity % 0 mm SolarRadiationWatts/m^2 W/m2 Conditions
00:00 -5.6 °C -8.2 °C 34611.7 hPa Calm   25.9 km/h 75 % 0 mm 0 W/m2
00:10 -5.8 °C -8.1 °C 34611.7 hPa NE 10.3 km/h 23.3 km/h 77 % 0 mm 0 W/m2
00:15 -5.8 °C -8.2 °C 34611.7 hPa NE 10.3 km/h 20.8 km/h 77 % 0 mm 0 W/m2
00:25 -6.1 °C -8.3 °C 34625.2 hPa NNE 5.1 km/h 20.8 km/h 78 % 0 mm 0 W/m2
00:30 -6.2 °C -8.4 °C 34611.7 hPa ENE 2.6 km/h 20.8 km/h 78 % 0 mm 0 W/m2
00:35 -6.2 °C -8.3 °C 34611.7 hPa NNE 12.9 km/h 25.9 km/h 79 % 0 mm 0 W/m2
00:40 -6.3 °C -8.5 °C 34611.7 hPa NE 7.7 km/h 25.9 km/h 78 % 0 mm 0 W/m2
00:45 -6.3 °C -8.6 °C 34611.7 hPa Calm   18.2 km/h 78 % 0 mm 0 W/m2
00:50 -6.4 °C -8.5 °C 34611.7 hPa NE 7.7 km/h 18.2 km/h 79 % 0 mm 0 W/m2
00:55 -6.4 °C -8.6 °C 34611.7 hPa Calm   18.2 km/h 79 % 0 mm 0 W/m2
01:00 -6.6 °C -8.6 °C 34611.7 hPa NNE 5.1 km/h 18.2 km/h 79 % 0 mm 0 W/m2
01:05 -6.6 °C -8.6 °C 34611.7 hPa Calm   18.2 km/h 80 % 0 mm 0 W/m2
01:10 -6.7 °C -8.7 °C 34611.7 hPa ENE 7.7 km/h 15.6 km/h 80 % 0 mm 0 W/m2
01:15 -6.7 °C -8.7 °C 34611.7 hPa NNE 5.1 km/h 15.6 km/h 80 % 0 mm 0 W/m2
01:20 -6.8 °C -8.8 °C 34611.7 hPa NE 10.3 km/h 18.2 km/h 80 % 0 mm 0 W/m2
01:25 -6.8 °C -8.8 °C 34611.7 hPa NE 12.9 km/h 18.2 km/h 80 % 0 mm 0 W/m2
01:30 -6.8 °C -8.7 °C 34611.7 hPa ENE 2.6 km/h 15.6 km/h 81 % 0 mm 0 W/m2
01:35 -6.9 °C -8.8 °C 34611.7 hPa ENE 7.7 km/h 15.6 km/h 81 % 0 mm 0 W/m2
01:40 -7.1 °C -8.9 °C 34611.7 hPa NE 10.3 km/h 15.6 km/h 81 % 0 mm 0 W/m2
01:50 -7.2 °C -8.9 °C 34601.5 hPa ENE 5.1 km/h 12.9 km/h 83 % 0 mm 0 W/m2
01:55 -7.3 °C -8.8 °C 34601.5 hPa NE 2.6 km/h 12.9 km/h 84 % 0 mm 0 W/m2
02:00 -7.3 °C -8.9 °C 34601.5 hPa Calm   12.9 km/h 84 % 0 mm 0 W/m2
02:05 -7.4 °C -9 °C 34601.5 hPa Calm   10.3 km/h 84 % 0 mm 0 W/m2
02:15 -7.6 °C -9.1 °C 34601.5 hPa NE 5.1 km/h 7.7 km/h 85 % 0 mm 0 W/m2
02:20 -7.7 °C -9 °C 34601.5 hPa Calm   7.7 km/h 86 % 0 mm 0 W/m2
02:25 -7.7 °C -9.1 °C 34601.5 hPa Calm   10.3 km/h 86 % 0 mm 0 W/m2
02:30 -7.7 °C -9.1 °C 34601.5 hPa Calm   10.3 km/h 86 % 0 mm 0 W/m2
02:35 -7.8 °C -9.1 °C 34591.4 hPa Calm   7.7 km/h 87 % 0 mm 0 W/m2
02:40 -7.9 °C -9.1 °C 34591.4 hPa Calm   7.7 km/h 87 % 0 mm 0 W/m2
02:45 -7.9 °C -9 °C 34591.4 hPa ENE 2.6 km/h 5.1 km/h 88 % 0 mm 0 W/m2
02:50 -7.9 °C -9.1 °C 34591.4 hPa Calm   5.1 km/h 88 % 0 mm 0 W/m2
02:55 -8 °C -9.2 °C 34591.4 hPa Calm   5.1 km/h 88 % 0 mm 0 W/m2
03:00 -8.1 °C -9.2 °C 34591.4 hPa Calm   10.3 km/h 88 % 0 mm 0 W/m2
03:05 -8.2 °C -9.2 °C 34591.4 hPa NE 2.6 km/h 10.3 km/h 89 % 0 mm 0 W/m2
03:10 -8.2 °C -9.2 °C 34591.4 hPa Calm   7.7 km/h 89 % 0 mm 0 W/m2
03:15 -8.2 °C -9.2 °C 34591.4 hPa Calm   7.7 km/h 89 % 0 mm 0 W/m2
03:20 -8.3 °C -9.2 °C 34591.4 hPa Calm   7.7 km/h 90 % 0 mm 0 W/m2
03:25 -8.3 °C -9.2 °C 34591.4 hPa ENE 2.6 km/h 5.1 km/h 90 % 0 mm 0 W/m2
03:30 -8.3 °C -9.3 °C 34591.4 hPa ENE 5.1 km/h 12.9 km/h 90 % 0 mm 0 W/m2
03:35 -8.2 °C -9.2 °C 34591.4 hPa ENE 2.6 km/h 18.2 km/h 90 % 0 mm 0 W/m2
03:40 -8.2 °C -9.2 °C 34591.4 hPa East 5.1 km/h 18.2 km/h 90 % 0 mm 0 W/m2
03:45 -8.2 °C -9.1 °C 34591.4 hPa ENE 10.3 km/h 18.2 km/h 90 % 0 mm 0 W/m2
03:50 -8.2 °C -9.1 °C 34591.4 hPa East 20.8 km/h 20.8 km/h 90 % 0 mm 0 W/m2
03:55 -8.1 °C -9.1 °C 34591.4 hPa NE 2.6 km/h 20.8 km/h 89 % 0 mm 0 W/m2
04:00 -8.1 °C -9.1 °C 34577.8 hPa ENE 18.2 km/h 18.2 km/h 89 % 0 mm 0 W/m2
04:05 -8.1 °C -9.1 °C 34577.8 hPa NE 2.6 km/h 18.2 km/h 89 % 0 mm 0 W/m2
04:10 -8.1 °C -9.1 °C 34577.8 hPa NE 12.9 km/h 18.2 km/h 89 % 0 mm 0 W/m2
04:15 -8.2 °C -9.2 °C 34577.8 hPa ENE 5.1 km/h 18.2 km/h 89 % 0 mm 0 W/m2
04:20 -8.2 °C -9.2 °C 34577.8 hPa NE 5.1 km/h 18.2 km/h 89 % 0 mm 0 W/m2
04:25 -8.2 °C -9.2 °C 34577.8 hPa East 2.6 km/h 12.9 km/h 90 % 0 mm 0 W/m2
04:30 -8.2 °C -9.1 °C 34577.8 hPa East 5.1 km/h 15.6 km/h 90 % 0 mm 0 W/m2
04:35 -8.1 °C -9.1 °C 34577.8 hPa ENE 7.7 km/h 18.2 km/h 90 % 0 mm 0 W/m2
04:40 -8.1 °C -9.1 °C 34577.8 hPa NE 10.3 km/h 23.3 km/h 89 % 0 mm 0 W/m2
04:45 -8.1 °C -9.1 °C 34577.8 hPa East 7.7 km/h 23.3 km/h 89 % 0 mm 0 W/m2
04:50 -8.1 °C -9.1 °C 34577.8 hPa ENE 2.6 km/h 18.2 km/h 89 % 0 mm 0 W/m2
04:55 -8.2 °C -9.2 °C 34577.8 hPa ENE 7.7 km/h 18.2 km/h 89 % 0 mm 0 W/m2
05:00 -8.2 °C -9.3 °C 34577.8 hPa ENE 5.1 km/h 18.2 km/h 89 % 0 mm 0 W/m2
05:05 -8.2 °C -9.2 °C 34577.8 hPa ENE 7.7 km/h 18.2 km/h 90 % 0 mm 0 W/m2
05:10 -8.3 °C -9.3 °C 34567.7 hPa East 12.9 km/h 18.2 km/h 90 % 0 mm 0 W/m2
05:15 -8.4 °C -9.3 °C 34567.7 hPa ENE 5.1 km/h 18.2 km/h 90 % 0 mm 0 W/m2
05:20 -8.4 °C -9.3 °C 34577.8 hPa ENE 7.7 km/h 18.2 km/h 90 % 0 mm 0 W/m2
05:25 -8.4 °C -9.3 °C 34567.7 hPa ENE 5.1 km/h 23.3 km/h 90 % 0 mm 0 W/m2
05:30 -8.3 °C -9.2 °C 34567.7 hPa ENE 10.3 km/h 23.3 km/h 90 % 0 mm 0 W/m2
05:35 -8.4 °C -9.3 °C 34567.7 hPa Calm   18.2 km/h 90 % 0 mm 0 W/m2
05:40 -8.6 °C -9.4 °C 34567.7 hPa ENE 2.6 km/h 15.6 km/h 90 % 0 mm 0 W/m2
05:45 -8.7 °C -9.5 °C 34567.7 hPa Calm   10.3 km/h 91 % 0 mm 0 W/m2
05:50 -8.7 °C -9.6 °C 34567.7 hPa Calm   10.3 km/h 91 % 0 mm 0 W/m2
06:00 -8.7 °C -9.4 °C 34567.7 hPa Calm   12.9 km/h 92 % 0 mm 0 W/m2
06:05 -8.7 °C -9.4 °C 34567.7 hPa Calm   10.3 km/h 92 % 0 mm 0 W/m2
06:10 -8.7 °C -9.4 °C 34567.7 hPa NE 5.1 km/h 12.9 km/h 92 % 0 mm 0 W/m2
06:15 -8.7 °C -9.4 °C 34567.7 hPa NE 2.6 km/h 12.9 km/h 93 % 0 mm 0 W/m2
06:20 -8.8 °C -9.4 °C 34567.7 hPa NE 7.7 km/h 7.7 km/h 93 % 0 mm 5 W/m2
06:25 -8.8 °C -9.4 °C 34567.7 hPa Calm   12.9 km/h 93 % 0 mm 9 W/m2
06:30 -8.8 °C -9.6 °C 34567.7 hPa ENE 7.7 km/h 12.9 km/h 92 % 0 mm 11 W/m2
06:35 -8.8 °C -9.5 °C 34567.7 hPa ENE 2.6 km/h 10.3 km/h 93 % 0 mm 12 W/m2
06:40 -8.8 °C -9.4 °C 34567.7 hPa ENE 5.1 km/h 12.9 km/h 93 % 0 mm 14 W/m2
06:45 -8.7 °C -9.4 °C 34567.7 hPa NE 7.7 km/h 12.9 km/h 93 % 0 mm 16 W/m2
06:50 -8.6 °C -9.2 °C 34567.7 hPa Calm   18.2 km/h 93 % 0 mm 18 W/m2
06:55 -8.6 °C -9.2 °C 34567.7 hPa NNE 12.9 km/h 18.2 km/h 93 % 0 mm 19 W/m2
07:00 -8.5 °C -9.2 °C 34567.7 hPa NNE 2.6 km/h 18.2 km/h 92 % 0 mm 23 W/m2
07:05 -8.4 °C -9.1 °C 34567.7 hPa NNE 5.1 km/h 18.2 km/h 92 % 0 mm 25 W/m2
07:10 -8.3 °C -9.1 °C 34567.7 hPa ENE 10.3 km/h 20.8 km/h 91 % 0 mm 26 W/m2
07:15 -8.2 °C -9.1 °C 34567.7 hPa NE 10.3 km/h 20.8 km/h 91 % 0 mm 28 W/m2
07:20 -8.1 °C -8.9 °C 34567.7 hPa NE 5.1 km/h 20.8 km/h 91 % 0 mm 30 W/m2
07:25 -8.1 °C -9 °C 34567.7 hPa NNE 5.1 km/h 23.3 km/h 90 % 0 mm 32 W/m2
07:30 -7.9 °C -8.9 °C 34567.7 hPa NE 5.1 km/h 23.3 km/h 90 % 0 mm 33 W/m2
07:35 -7.9 °C -8.8 °C 34567.7 hPa NE 7.7 km/h 20.8 km/h 90 % 0 mm 33 W/m2
07:45 -7.7 °C -8.8 °C 34567.7 hPa NE 2.6 km/h 25.9 km/h 89 % 0 mm 39 W/m2
07:50 -7.7 °C -8.8 °C 34567.7 hPa ENE 2.6 km/h 25.9 km/h 88 % 0 mm 186 W/m2
07:55 -7.6 °C -8.8 °C 34567.7 hPa ENE 12.9 km/h 23.3 km/h 87 % 0 mm 199 W/m2
08:00 -7.4 °C -8.7 °C 34567.7 hPa NE 15.6 km/h 23.3 km/h 87 % 0 mm 214 W/m2
08:05 -7.3 °C -8.7 °C 34567.7 hPa ENE 12.9 km/h 25.9 km/h 86 % 0 mm 229 W/m2
08:10 -7.1 °C -8.6 °C 34567.7 hPa East 10.3 km/h 25.9 km/h 85 % 0 mm 244 W/m2
08:15 -7 °C -8.5 °C 34567.7 hPa East 28.5 km/h 28.5 km/h 84 % 0 mm 258 W/m2
08:20 -6.8 °C -8.6 °C 34567.7 hPa NE 7.7 km/h 28.5 km/h 82 % 0 mm 272 W/m2
08:25 -6.6 °C -8.5 °C 34567.7 hPa East 18.2 km/h 28.5 km/h 81 % 0 mm 285 W/m2
08:30 -6.5 °C -8.6 °C 34567.7 hPa ENE 18.2 km/h 28.5 km/h 79 % 0 mm 299 W/m2
08:35 -6.4 °C -8.5 °C 34567.7 hPa ENE 18.2 km/h 28.5 km/h 79 % 0 mm 313 W/m2
08:40 -6.3 °C -8.5 °C 34567.7 hPa East 12.9 km/h 28.5 km/h 78 % 0 mm 329 W/m2
08:45 -6.2 °C -8.4 °C 34567.7 hPa ENE 5.1 km/h 28.5 km/h 77 % 0 mm 343 W/m2
08:50 -6.1 °C -8.3 °C 34567.7 hPa East 15.6 km/h 28.5 km/h 78 % 0 mm 359 W/m2
08:55 -5.9 °C -8.5 °C 34554.1 hPa East 5.1 km/h 28.5 km/h 75 % 0 mm 373 W/m2
09:00 -5.7 °C -8.3 °C 34554.1 hPa ENE 10.3 km/h 28.5 km/h 75 % 0 mm 387 W/m2
09:05 -5.6 °C -8.3 °C 34554.1 hPa East 7.7 km/h 28.5 km/h 74 % 0 mm 401 W/m2
09:10 -5.4 °C -8.3 °C 34554.1 hPa ENE 5.1 km/h 28.5 km/h 73 % 0 mm 417 W/m2
09:15 -5.3 °C -8.2 °C 34554.1 hPa ENE 25.9 km/h 41.4 km/h 73 % 0 mm 431 W/m2
09:20 -5.2 °C -8.1 °C 34554.1 hPa East 25.9 km/h 41.4 km/h 73 % 0 mm 445 W/m2
09:25 -5.1 °C -8.3 °C 34554.1 hPa East 12.9 km/h 41.4 km/h 70 % 0 mm 461 W/m2
09:30 -4.9 °C -8.1 °C 34554.1 hPa ESE 7.7 km/h 41.4 km/h 70 % 0 mm 475 W/m2
09:35 -4.8 °C -8.1 °C 34554.1 hPa East 12.9 km/h 36.2 km/h 69 % 0 mm 485 W/m2
09:40 -4.6 °C -7.9 °C 34554.1 hPa ENE 10.3 km/h 41.4 km/h 69 % 0 mm 499 W/m2
09:45 -4.5 °C -8.3 °C 34544 hPa ESE 7.7 km/h 41.4 km/h 66 % 0 mm 517 W/m2
09:50 -4.4 °C -8.1 °C 34554.1 hPa ENE 36.2 km/h 38.8 km/h 67 % 0 mm 527 W/m2
09:55 -4.4 °C -8 °C 34544 hPa East 23.3 km/h 38.8 km/h 67 % 0 mm 540 W/m2
10:00 -4.3 °C -8.2 °C 34544 hPa East 15.6 km/h 41.4 km/h 65 % 0 mm 557 W/m2
10:05 -4.3 °C -8.2 °C 34544 hPa East 10.3 km/h 41.4 km/h 65 % 0 mm 570 W/m2
10:10 -4.1 °C -8.2 °C 34544 hPa ENE 28.5 km/h 44.1 km/h 63 % 0 mm 582 W/m2
10:15 -4.1 °C -8.2 °C 34544 hPa East 25.9 km/h 44.1 km/h 63 % 0 mm 596 W/m2
10:20 -4.1 °C -8.1 °C 34533.8 hPa SE 12.9 km/h 44.1 km/h 64 % 0 mm 606 W/m2
10:25 -3.9 °C -7.9 °C 34533.8 hPa ESE 23.3 km/h 41.4 km/h 64 % 0 mm 621 W/m2
10:30 -3.7 °C -7.9 °C 34533.8 hPa ENE 10.3 km/h 41.4 km/h 63 % 0 mm 633 W/m2
10:35 -3.7 °C -8.2 °C 34533.8 hPa ENE 36.2 km/h 41.4 km/h 61 % 0 mm 647 W/m2
10:40 -3.4 °C -8.1 °C 34533.8 hPa ENE 20.8 km/h 41.4 km/h 60 % 0 mm 659 W/m2
10:45 -3.5 °C -8.3 °C 34533.8 hPa SE 25.9 km/h 46.7 km/h 59 % 0 mm 671 W/m2
10:50 -3.6 °C -8.2 °C 34533.8 hPa SSE 15.6 km/h 46.7 km/h 60 % 0 mm 680 W/m2
10:55 -3.4 °C -8.1 °C 34533.8 hPa NE 15.6 km/h 46.7 km/h 60 % 0 mm 693 W/m2
11:00 -3.4 °C -8.4 °C 34520.3 hPa East 33.6 km/h 49.2 km/h 58 % 0 mm 701 W/m2
11:05 -3.3 °C -8 °C 34520.3 hPa East 31.1 km/h 49.2 km/h 60 % 0 mm 715 W/m2
11:10 -3.3 °C -8.3 °C 34520.3 hPa ESE 20.8 km/h 46.7 km/h 58 % 0 mm 726 W/m2
11:15 -3.2 °C -8.2 °C 34520.3 hPa ENE 10.3 km/h 44.1 km/h 58 % 0 mm 735 W/m2
11:20 -3.2 °C -8.1 °C 34520.3 hPa ENE 31.1 km/h 41.4 km/h 58 % 0 mm 744 W/m2
11:25 -3.1 °C -7.9 °C 34520.3 hPa East 15.6 km/h 41.4 km/h 59 % 0 mm 751 W/m2
11:30 -2.9 °C -7.9 °C 34520.3 hPa ENE 15.6 km/h 38.8 km/h 58 % 0 mm 763 W/m2
11:35 -2.8 °C -8.1 °C 34520.3 hPa East 33.6 km/h 38.8 km/h 56 % 0 mm 773 W/m2
11:40 -2.6 °C -7.8 °C 34520.3 hPa SE 10.3 km/h 36.2 km/h 56 % 0 mm 782 W/m2
11:45 -2.7 °C -8.3 °C 34520.3 hPa East 18.2 km/h 38.8 km/h 54 % 0 mm 796 W/m2
11:50 -2.6 °C -7.7 °C 34520.3 hPa ENE 23.3 km/h 38.8 km/h 57 % 0 mm 800 W/m2
11:55 -2.6 °C -8.2 °C 34520.3 hPa ESE 28.5 km/h 44.1 km/h 54 % 0 mm 798 W/m2
12:00 -2.6 °C -8.2 °C 34520.3 hPa NE 7.7 km/h 44.1 km/h 54 % 0 mm 817 W/m2
12:05 -2.3 °C -8.2 °C 34520.3 hPa ENE 33.6 km/h 51.8 km/h 53 % 0 mm 824 W/m2
12:10 -2.4 °C -8.2 °C 34510.1 hPa SSE 18.2 km/h 51.8 km/h 53 % 0 mm 830 W/m2
12:15 -2.3 °C -8.1 °C 34510.1 hPa NE 5.1 km/h 44.1 km/h 53 % 0 mm 842 W/m2
12:20 -2.1 °C -7.9 °C 34510.1 hPa ENE 2.6 km/h 41.4 km/h 53 % 0 mm 847 W/m2
12:25 -2 °C -8 °C 34510.1 hPa East 25.9 km/h 41.4 km/h 52 % 0 mm 856 W/m2
12:30 -2.1 °C -8.4 °C 34510.1 hPa ENE 28.5 km/h 41.4 km/h 50 % 0 mm 860 W/m2
12:35 -2.1 °C -8.4 °C 34510.1 hPa NE 28.5 km/h 44.1 km/h 50 % 0 mm 863 W/m2
12:40 -1.9 °C -8.3 °C 34510.1 hPa East 18.2 km/h 44.1 km/h 50 % 0 mm 868 W/m2
12:45 -1.8 °C -7.6 °C 34496.6 hPa ENE 33.6 km/h 38.8 km/h 53 % 0 mm 872 W/m2
12:50 -1.6 °C -8 °C 34496.6 hPa East 25.9 km/h 41.4 km/h 50 % 0 mm 879 W/m2
12:55 -1.8 °C -8.3 °C 34496.6 hPa SSE 7.7 km/h 41.4 km/h 49 % 0 mm 884 W/m2
13:00 -1.5 °C -8.4 °C 34496.6 hPa East 20.8 km/h 38.8 km/h 47 % 0 mm 889 W/m2
13:05 -1.6 °C -8.1 °C 34496.6 hPa ENE 28.5 km/h 36.2 km/h 49 % 0 mm 891 W/m2
13:10 -1.5 °C -8.1 °C 34486.4 hPa ENE 20.8 km/h 36.2 km/h 49 % 0 mm 896 W/m2
13:15 -1.5 °C -8.3 °C 34486.4 hPa East 18.2 km/h 46.7 km/h 48 % 0 mm 900 W/m2
13:20 -1.4 °C -8.2 °C 34486.4 hPa East 25.9 km/h 46.7 km/h 48 % 0 mm 900 W/m2
13:25 -1.4 °C -7.7 °C 34486.4 hPa East 31.1 km/h 44.1 km/h 51 % 0 mm 904 W/m2
13:30 -1.2 °C -7.8 °C 34486.4 hPa East 12.9 km/h 41.4 km/h 49 % 0 mm 904 W/m2
13:35 -1.2 °C -8 °C 34486.4 hPa East 5.1 km/h 46.7 km/h 48 % 0 mm 904 W/m2
13:45 -1.2 °C -8.3 °C 34476.3 hPa SE 25.9 km/h 46.7 km/h 46 % 0 mm 907 W/m2
13:50 -1 °C -8 °C 34476.3 hPa NNE 5.1 km/h 46.7 km/h 47 % 0 mm 912 W/m2
13:55 -0.8 °C -8.4 °C 34476.3 hPa East 23.3 km/h 41.4 km/h 44 % 0 mm 916 W/m2
14:00 -0.7 °C -8.3 °C 34476.3 hPa ESE 25.9 km/h 38.8 km/h 44 % 0 mm 916 W/m2
14:05 -0.7 °C -7.9 °C 34476.3 hPa East 36.2 km/h 36.2 km/h 46 % 0 mm 914 W/m2
14:10 -0.9 °C -8.4 °C 34476.3 hPa East 20.8 km/h 46.7 km/h 44 % 0 mm 912 W/m2
14:15 -0.9 °C -8.2 °C 34476.3 hPa ESE 7.7 km/h 49.2 km/h 45 % 0 mm 914 W/m2
14:20 -0.8 °C -8.6 °C 34476.3 hPa East 18.2 km/h 49.2 km/h 43 % 0 mm 911 W/m2
14:25 -0.8 °C -8.4 °C 34476.3 hPa ENE 18.2 km/h 54.4 km/h 44 % 0 mm 911 W/m2
14:30 -0.7 °C -8.1 °C 34476.3 hPa ENE 12.9 km/h 54.4 km/h 45 % 0 mm 904 W/m2
14:35 -0.5 °C -8.1 °C 34462.7 hPa NE 10.3 km/h 31.1 km/h 44 % 0 mm 911 W/m2
14:40 -0.7 °C -8.4 °C 34462.7 hPa SE 12.9 km/h 44.1 km/h 43 % 0 mm 902 W/m2
14:45 -0.7 °C -8.2 °C 34462.7 hPa ENE 18.2 km/h 44.1 km/h 44 % 0 mm 900 W/m2
14:50 -0.7 °C -8.5 °C 34462.7 hPa East 20.8 km/h 44.1 km/h 43 % 0 mm 896 W/m2
14:55 -0.7 °C -8.3 °C 34452.6 hPa NE 23.3 km/h 38.8 km/h 44 % 0 mm 889 W/m2
15:00 -0.4 °C -8.2 °C 34452.6 hPa ENE 12.9 km/h 41.4 km/h 43 % 0 mm 889 W/m2
15:05 -0.6 °C -8.4 °C 34452.6 hPa ENE 31.1 km/h 41.4 km/h 43 % 0 mm 881 W/m2
15:10 -0.5 °C -8.1 °C 34452.6 hPa East 23.3 km/h 49.2 km/h 44 % 0 mm 879 W/m2
15:15 -0.4 °C -8.2 °C 34452.6 hPa NE 20.8 km/h 49.2 km/h 43 % 0 mm 875 W/m2
15:20 -0.4 °C -8.1 °C 34452.6 hPa ESE 18.2 km/h 57 km/h 44 % 0 mm 868 W/m2
15:25 -0.2 °C -8 °C 34442.4 hPa East 15.6 km/h 57 km/h 43 % 0 mm 865 W/m2
15:30 -0.2 °C -8.2 °C 34442.4 hPa ENE 12.9 km/h 44.1 km/h 42 % 0 mm 860 W/m2
15:35 -0.1 °C -7.9 °C 34442.4 hPa ESE 23.3 km/h 44.1 km/h 43 % 0 mm 849 W/m2
15:40 -0.1 °C -8.4 °C 34428.8 hPa ESE 12.9 km/h 38.8 km/h 41 % 0 mm 847 W/m2
15:45 -0.1 °C -7.9 °C 34428.8 hPa NE 5.1 km/h 38.8 km/h 43 % 0 mm 842 W/m2
15:50 0.2 °C -7.7 °C 34428.8 hPa East 33.6 km/h 41.4 km/h 43 % 0 mm 837 W/m2
15:55 -0.1 °C -8.3 °C 34428.8 hPa ENE 7.7 km/h 41.4 km/h 41 % 0 mm 830 W/m2
16:00 -0.1 °C -8.3 °C 34428.8 hPa ESE 23.3 km/h 44.1 km/h 41 % 0 mm 819 W/m2
16:05 -0.1 °C -8.6 °C 34428.8 hPa East 18.2 km/h 44.1 km/h 40 % 0 mm 812 W/m2
16:10 0 °C -8.5 °C 34428.8 hPa ENE 23.3 km/h 38.8 km/h 40 % 0 mm 805 W/m2
16:15 0.1 °C -8.4 °C 34418.7 hPa ENE 20.8 km/h 38.8 km/h 40 % 0 mm 793 W/m2
16:20 -0.1 °C -8.3 °C 34428.8 hPa ESE 18.2 km/h 41.4 km/h 41 % 0 mm 789 W/m2
16:25 -0.1 °C -8.6 °C 34428.8 hPa ENE 12.9 km/h 41.4 km/h 40 % 0 mm 780 W/m2
16:30 0.2 °C -8.6 °C 34428.8 hPa East 36.2 km/h 38.8 km/h 39 % 0 mm 768 W/m2
16:35 0.2 °C -8.6 °C 34428.8 hPa ENE 7.7 km/h 41.4 km/h 39 % 0 mm 758 W/m2
16:40 0.2 °C -8.3 °C 34418.7 hPa NE 20.8 km/h 41.4 km/h 40 % 0 mm 752 W/m2
16:45 0.1 °C -8.4 °C 34418.7 hPa ENE 18.2 km/h 41.4 km/h 40 % 0 mm 742 W/m2
16:50 0.2 °C -8.1 °C 34418.7 hPa East 23.3 km/h 44.1 km/h 41 % 0 mm 724 W/m2
16:55 0.2 °C -8.1 °C 34418.7 hPa East 10.3 km/h 44.1 km/h 41 % 0 mm 721 W/m2
17:00 0.2 °C -8.5 °C 34405.1 hPa ENE 33.6 km/h 38.8 km/h 39 % 0 mm 710 W/m2
17:05 0.2 °C -8.3 °C 34405.1 hPa ENE 31.1 km/h 38.8 km/h 40 % 0 mm 696 W/m2
17:10 0.2 °C -8.6 °C 34405.1 hPa ENE 28.5 km/h 46.7 km/h 39 % 0 mm 687 W/m2
17:15 0.4 °C -7.9 °C 34405.1 hPa ENE 18.2 km/h 46.7 km/h 41 % 0 mm 673 W/m2
17:20 0.4 °C -8.6 °C 34405.1 hPa ESE 7.7 km/h 36.2 km/h 38 % 0 mm 668 W/m2
17:25 0.4 °C -8.3 °C 34405.1 hPa NE 7.7 km/h 41.4 km/h 39 % 0 mm 649 W/m2
17:30 0.4 °C -8.4 °C 34405.1 hPa ESE 18.2 km/h 41.4 km/h 39 % 0 mm 640 W/m2
17:35 0.4 °C -8.6 °C 34405.1 hPa ENE 18.2 km/h 44.1 km/h 38 % 0 mm 631 W/m2
17:40 0.5 °C -8.3 °C 34405.1 hPa ENE 12.9 km/h 44.1 km/h 39 % 0 mm 617 W/m2
17:45 0.4 °C -8.1 °C 34405.1 hPa NNE 10.3 km/h 41.4 km/h 40 % 0 mm 605 W/m2
17:50 0.6 °C -7.9 °C 34405.1 hPa North 23.3 km/h 41.4 km/h 40 % 0 mm 589 W/m2
17:55 0.4 °C -8.6 °C 34405.1 hPa ESE 12.9 km/h 44.1 km/h 38 % 0 mm 578 W/m2
18:00 0.5 °C -8.5 °C 34405.1 hPa ESE 7.7 km/h 44.1 km/h 38 % 0 mm 564 W/m2
18:05 0.4 °C -8.6 °C 34405.1 hPa East 25.9 km/h 33.6 km/h 38 % 0 mm 552 W/m2
18:10 0.4 °C -8.6 °C 34405.1 hPa East 12.9 km/h 36.2 km/h 38 % 0 mm 541 W/m2
18:15 0.3 °C -8.7 °C 34405.1 hPa East 28.5 km/h 44.1 km/h 38 % 0 mm 527 W/m2
18:20 0.4 °C -8.8 °C 34405.1 hPa ENE 28.5 km/h 44.1 km/h 37 % 0 mm 513 W/m2
18:25 0.2 °C -8.9 °C 34395 hPa East 7.7 km/h 36.2 km/h 37 % 0 mm 501 W/m2
18:30 0.3 °C -8.2 °C 34395 hPa East 20.8 km/h 36.2 km/h 40 % 0 mm 487 W/m2
18:35 0.4 °C -8.6 °C 34395 hPa East 5.1 km/h 31.1 km/h 38 % 0 mm 471 W/m2
18:40 0.3 °C -8.7 °C 34395 hPa ESE 12.9 km/h 44.1 km/h 38 % 0 mm 462 W/m2
18:45 0.3 °C -8.7 °C 34395 hPa NE 20.8 km/h 44.1 km/h 38 % 0 mm 446 W/m2
18:50 0.2 °C -8.5 °C 34395 hPa NE 10.3 km/h 38.8 km/h 39 % 0 mm 431 W/m2
18:55 0.2 °C -8.5 °C 34395 hPa ENE 5.1 km/h 33.6 km/h 39 % 0 mm 417 W/m2
19:00 0.2 °C -8.3 °C 34395 hPa East 7.7 km/h 33.6 km/h 40 % 0 mm 404 W/m2
19:05 0.2 °C -8.5 °C 34395 hPa ESE 12.9 km/h 33.6 km/h 39 % 0 mm 388 W/m2
19:10 0.2 °C -8.5 °C 34395 hPa NE 23.3 km/h 33.6 km/h 39 % 0 mm 374 W/m2
19:15 0.1 °C -8.6 °C 34395 hPa ESE 18.2 km/h 33.6 km/h 39 % 0 mm 362 W/m2
19:20 0.2 °C -8.6 °C 34384.8 hPa ENE 23.3 km/h 38.8 km/h 39 % 0 mm 346 W/m2
19:25 0.1 °C -8.6 °C 34384.8 hPa East 5.1 km/h 38.8 km/h 39 % 0 mm 332 W/m2
19:30 0.1 °C -8.7 °C 34384.8 hPa ENE 5.1 km/h 33.6 km/h 39 % 0 mm 320 W/m2
19:35 -0.1 °C -8.7 °C 34384.8 hPa East 18.2 km/h 36.2 km/h 39 % 0 mm 295 W/m2
19:40 -0.1 °C -8.8 °C 34384.8 hPa ESE 5.1 km/h 36.2 km/h 39 % 0 mm 267 W/m2
19:45 -0.2 °C -8.6 °C 34384.8 hPa ENE 25.9 km/h 41.4 km/h 40 % 0 mm 239 W/m2
19:50 -0.2 °C -8.4 °C 34384.8 hPa ESE 25.9 km/h 41.4 km/h 41 % 0 mm 220 W/m2
19:55 -0.3 °C -8.5 °C 34384.8 hPa ESE 20.8 km/h 36.2 km/h 41 % 0 mm 202 W/m2
20:00 -0.3 °C -8.7 °C 34384.8 hPa East 12.9 km/h 36.2 km/h 40 % 0 mm 192 W/m2
20:05 -0.3 °C -9 °C 34384.8 hPa East 18.2 km/h 36.2 km/h 39 % 0 mm 186 W/m2
20:10 -0.4 °C -9.1 °C 34384.8 hPa ESE 12.9 km/h 33.6 km/h 39 % 0 mm 181 W/m2
20:15 -0.4 °C -8.8 °C 34384.8 hPa ESE 5.1 km/h 33.6 km/h 40 % 0 mm 162 W/m2
20:20 -0.4 °C -8.7 °C 34384.8 hPa SE 7.7 km/h 36.2 km/h 41 % 0 mm 137 W/m2
20:25 -0.6 °C -9.1 °C 34384.8 hPa ESE 18.2 km/h 36.2 km/h 40 % 0 mm 125 W/m2
20:30 -0.7 °C -8.9 °C 34384.8 hPa East 25.9 km/h 25.9 km/h 41 % 0 mm 114 W/m2
20:35 -0.7 °C -8.7 °C 34384.8 hPa ENE 5.1 km/h 33.6 km/h 42 % 0 mm 98 W/m2
20:40 -0.9 °C -8.9 °C 34384.8 hPa ESE 18.2 km/h 33.6 km/h 42 % 0 mm 58 W/m2
20:45 -0.9 °C -8.7 °C 34384.8 hPa SE 10.3 km/h 28.5 km/h 43 % 0 mm 33 W/m2
20:55 -1.1 °C -8.8 °C 34384.8 hPa ENE 10.3 km/h 28.5 km/h 43 % 0 mm 44 W/m2
21:00 -1.2 °C -8.7 °C 34384.8 hPa East 12.9 km/h 28.5 km/h 44 % 0 mm 30 W/m2
21:05 -1.3 °C -8.6 °C 34384.8 hPa ENE 10.3 km/h 20.8 km/h 45 % 0 mm 25 W/m2
21:10 -1.4 °C -8.7 °C 34384.8 hPa ESE 5.1 km/h 18.2 km/h 45 % 0 mm 23 W/m2
21:15 -1.6 °C -8.7 °C 34384.8 hPa East 7.7 km/h 18.2 km/h 46 % 0 mm 21 W/m2
21:20 -1.8 °C -8.5 °C 34384.8 hPa East 7.7 km/h 18.2 km/h 48 % 0 mm 19 W/m2
21:25 -1.8 °C -8.5 °C 34384.8 hPa East 2.6 km/h 18.2 km/h 48 % 0 mm 18 W/m2
21:30 -1.9 °C -8.4 °C 34384.8 hPa ESE 5.1 km/h 18.2 km/h 49 % 0 mm 16 W/m2
21:35 -2.1 °C -8.4 °C 34384.8 hPa ESE 5.1 km/h 12.9 km/h 50 % 0 mm 16 W/m2
21:40 -2.2 °C -8.5 °C 34395 hPa ESE 7.7 km/h 7.7 km/h 50 % 0 mm 12 W/m2
21:45 -2.3 °C -8.6 °C 34395 hPa Calm   12.9 km/h 50 % 0 mm 11 W/m2
21:50 -2.4 °C -8.6 °C 34395 hPa Calm   12.9 km/h 51 % 0 mm 9 W/m2
21:55 -2.6 °C -8.6 °C 34395 hPa Calm   12.9 km/h 52 % 0 mm 7 W/m2
22:00 -2.7 °C -8.4 °C 34395 hPa Calm   12.9 km/h 53 % 0 mm 5 W/m2
22:05 -2.7 °C -8.5 °C 34395 hPa East 2.6 km/h 12.9 km/h 53 % 0 mm 5 W/m2
22:10 -2.9 °C -8.4 °C 34395 hPa East 5.1 km/h 12.9 km/h 55 % 0 mm 0 W/m2
22:15 -3.1 °C -8.5 °C 34395 hPa East 7.7 km/h 12.9 km/h 55 % 0 mm 0 W/m2
22:20 -3.2 °C -8.6 °C 34395 hPa East 7.7 km/h 10.3 km/h 55 % 0 mm 0 W/m2
22:25 -3.2 °C -8.7 °C 34395 hPa East 2.6 km/h 12.9 km/h 55 % 0 mm 0 W/m2
22:30 -3.4 °C -8.6 °C 34395 hPa East 2.6 km/h 12.9 km/h 57 % 0 mm 0 W/m2
22:35 -3.8 °C -8.4 °C 34405.1 hPa Calm   10.3 km/h 60 % 0 mm 0 W/m2
22:40 -4.1 °C -8.3 °C 34405.1 hPa Calm   10.3 km/h 63 % 0 mm 0 W/m2
22:45 -4.3 °C -8.4 °C 34405.1 hPa East 5.1 km/h 7.7 km/h 64 % 0 mm 0 W/m2
22:50 -4.3 °C -8.4 °C 34405.1 hPa Calm   12.9 km/h 63 % 0 mm 0 W/m2
22:55 -4.3 °C -8.3 °C 34405.1 hPa East 2.6 km/h 12.9 km/h 64 % 0 mm 0 W/m2
23:00 -4.5 °C -8.3 °C 34405.1 hPa East 2.6 km/h 12.9 km/h 65 % 0 mm 0 W/m2
23:05 -4.7 °C -8.3 °C 34405.1 hPa Calm   7.7 km/h 67 % 0 mm 0 W/m2
23:10 -4.8 °C -8.4 °C 34418.7 hPa Calm   7.7 km/h 67 % 0 mm 0 W/m2
23:15 -4.8 °C -8.3 °C 34418.7 hPa Calm   7.7 km/h 67 % 0 mm 0 W/m2
23:20 -4.7 °C -8.4 °C 34418.7 hPa ENE 5.1 km/h 7.7 km/h 66 % 0 mm 0 W/m2
23:25 -4.6 °C -8.3 °C 34418.7 hPa East 2.6 km/h 12.9 km/h 66 % 0 mm 0 W/m2
23:30 -4.5 °C -8.4 °C 34418.7 hPa East 12.9 km/h 15.6 km/h 65 % 0 mm 0 W/m2
23:35 -4.4 °C -8.4 °C 34418.7 hPa East 12.9 km/h 15.6 km/h 64 % 0 mm 0 W/m2
23:40 -4.4 °C -8.4 °C 34418.7 hPa ESE 10.3 km/h 15.6 km/h 64 % 0 mm 0 W/m2
23:45 -4.4 °C -8.6 °C 34418.7 hPa ENE 7.7 km/h 15.6 km/h 63 % 0 mm 0 W/m2
23:50 -4.5 °C -8.5 °C 34418.7 hPa East 2.6 km/h 18.2 km/h 64 % 0 mm 0 W/m2
23:55 -4.5 °C -8.6 °C 34418.7 hPa ENE 2.6 km/h 18.2 km/h 63 % 0 mm 0 W/m2
Avec l'autorisation de Weather Underground - 1.75 mb